Latest Weather Observations for Oenpelli Airport

IDD60801

Issued at 6:01 am CST Wednesday 24 October 2018 (issued every 10 minutes, with the page automatically refreshed every 10 minutes)

About weather observations | Map of weather stations | Latest weather observations for NT | Other Formats
Station Details ID: 014310 Name: OENPELLI AIRPORT Lat: -12.33 Lon: 133.01 Height: 7.5 m
Data from the previous 72 hours. | See also: Recent months at Oenpelli Airport
Date/Time
CST
Temp
°C
App
Temp
°C
Dew
Point
°C
Rel
Hum
%
Delta-T
°C
Wind Press
QNH
hPa
Press
MSL
hPa
Rain since
9am
mm
Dir  Spd
km/h
Gust
km/h
Spd
kts
Gust
kts
24/06:00am 26.3 32.1 24.0 87 1.6 CALM 0 0 0 0 1010.8 1010.7 0.0
24/05:30am 26.3 31.8 23.4 84 2.0 CALM 0 0 0 0 1010.4 1010.3 0.0
24/05:00am 26.7 32.4 23.8 84 2.0 CALM 0 0 0 0 1010.3 1010.2 0.0
24/04:30am 27.1 32.9 24.0 83 2.1 CALM 0 0 0 0 1010.1 1010.0 0.0
24/04:00am 26.9 32.9 24.2 85 1.9 CALM 0 0 0 0 1009.9 1009.8 0.0
24/03:30am 26.6 32.3 23.7 84 2.0 CALM 0 0 0 0 1009.8 1009.7 0.0
24/03:00am 26.8 32.2 23.3 81 2.4 CALM 0 0 0 0 1010.1 1010.0 0.0
24/02:30am 27.0 32.3 23.0 79 2.7 CALM 0 6 0 3 1010.3 1010.2 0.0
24/02:00am 28.1 33.0 24.3 80 2.6 WNW 6 9 3 5 1010.5 1010.4 0.0
24/01:30am 28.5 32.7 23.2 73 3.6 NW 6 9 3 5 1010.8 1010.7 0.0
24/01:00am 28.7 32.7 22.0 67 4.5 NNE 4 6 2 3 1011.4 1011.3 0.0
24/12:30am 29.2 34.1 22.4 66 4.6 CALM 0 4 0 2 1011.5 1011.4 0.0
24/12:00am 29.1 33.1 20.5 59 5.7 CALM 0 2 0 1 1011.5 1011.4 0.0
 
Date/Time
CST
Temp
°C
App
Temp
°C
Dew
Point
°C
Rel
Hum
%
Delta-T
°C
Wind Press
QNH
hPa
Press
MSL
hPa
Rain since
9am
mm
Dir  Spd
km/h
Gust
km/h
Spd
kts
Gust
kts
23/11:30pm 29.6 32.9 20.7 58 5.9 NW 4 6 2 3 1011.5 1011.4 0.0
23/11:00pm 29.7 33.0 20.0 56 6.4 N 2 4 1 2 1011.6 1011.5 0.0
23/10:30pm 28.4 31.8 19.3 57 5.9 CALM 0 4 0 2 1011.2 1011.1 0.0
23/10:00pm 28.6 31.9 19.2 56 6.1 CALM 0 0 0 0 1010.9 1010.8 0.0
23/09:30pm 29.8 33.1 19.2 53 6.9 CALM 0 0 0 0 1010.5 1010.4 0.0
23/09:00pm 30.1 33.1 19.2 52 7.1 NNW 2 4 1 2 1010.1 1010.0 0.0
23/08:30pm 30.4 32.6 19.1 50 7.4 NW 6 9 3 5 1009.5 1009.4 0.0
23/08:00pm 30.2 32.3 18.9 50 7.3 NNW 6 9 3 5 1009.4 1009.3 0.0
23/07:30pm 30.8 32.3 18.8 48 7.8 NW 9 13 5 7 1008.8 1008.7 0.0
23/07:00pm 32.1 32.9 19.0 45 8.6 NW 13 22 7 12 1008.3 1008.2 0.0
23/06:30pm 33.6 34.5 19.3 43 9.4 NNW 13 24 7 13 1007.8 1007.7 0.0
23/06:00pm 36.1 35.5 12.3 24 14.3 SW 7 11 4 6 1007.4 1007.3 0.0
23/05:30pm 36.2 35.2 12.4 24 14.4 SW 9 13 5 7 1007.2 1007.1 0.0
23/05:00pm 37.1 37.2 13.8 25 14.4 SW 6 11 3 6 1007.1 1007.0 0.0
23/04:30pm 36.8 37.4 15.3 28 13.6 S 6 13 3 7 1007.0 1006.9 0.0
23/04:00pm 37.0 37.5 15.5 28 13.6 SW 7 15 4 8 1006.9 1006.8 0.0
23/03:30pm 36.7 36.3 15.2 27 13.5 WSW 11 22 6 12 1007.0 1006.9 0.0
23/03:00pm 37.4 38.0 15.8 27 13.7 SW 7 19 4 10 1007.3 1007.2 0.0
23/02:30pm 36.7 36.3 16.3 30 13.0 SSW 13 28 7 15 1007.6 1007.5 0.0
23/02:00pm 36.8 36.9 16.4 30 13.0 SSW 11 19 6 10 1007.9 1007.8 0.0
23/01:30pm 36.7 37.3 17.8 32 12.3 SSW 11 19 6 10 1008.5 1008.4 0.0
23/01:00pm 35.3 36.0 18.0 36 11.2 SSW 11 22 6 12 1009.2 1009.1 0.0
23/12:30pm 35.8 35.6 17.5 34 11.8 SW 15 24 8 13 1009.6 1009.5 0.0
23/12:00pm 35.5 35.9 18.1 35 11.3 SW 13 20 7 11 1010.3 1010.2 0.0
23/11:30am 34.4 35.3 18.4 38 10.4 WSW 11 22 6 12 1010.7 1010.6 0.0
23/11:00am 34.1 34.5 18.2 39 10.3 SW 13 22 7 12 1011.1 1011.0 0.0
23/10:30am 34.3 35.8 18.8 40 10.2 SSW 9 17 5 9 1011.4 1011.3 0.0
23/10:00am 32.5 33.7 19.0 44 8.8 SW 11 20 6 11 1011.7 1011.6 0.0
23/09:30am 31.8 33.0 19.1 47 8.3 SSW 11 19 6 10 1011.9 1011.8 0.0
23/09:00am 31.0 32.5 19.7 51 7.4 S 11 20 6 11 1011.9 1011.8 0.0
23/08:30am 29.3 30.4 19.6 56 6.3 SW 13 19 7 10 1011.9 1011.8 0.0
23/08:00am 28.4 30.0 19.9 60 5.6 SSW 11 20 6 11 1011.8 1011.7 0.0
23/07:30am 27.6 28.7 20.4 65 4.7 SSW 15 26 8 14 1011.6 1011.5 0.0
23/07:00am 27.0 28.2 20.6 68 4.2 SSW 15 26 8 14 1011.1 1011.0 0.0
23/06:30am 26.3 28.7 22.2 78 2.8 SW 13 24 7 13 1010.8 1010.7 0.0
23/06:00am 26.0 30.5 23.7 87 1.6 WSW 6 11 3 6 1010.4 1010.3 0.0
23/05:30am 25.3 30.5 23.5 90 1.2 SW 2 6 1 3 1010.4 1010.3 0.0
23/05:00am 25.5 30.8 23.0 86 1.7 CALM 0 0 0 0 1010.0 1009.9 0.0
23/04:30am 26.2 31.9 23.7 86 1.7 CALM 0 0 0 0 1009.6 1009.5 0.0
23/04:00am 26.5 31.7 23.6 84 2.0 SW 2 4 1 2 1009.4 1009.3 0.0
23/03:30am 27.1 32.7 23.6 81 2.4 CALM 0 0 0 0 1009.2 1009.1 0.0
23/03:00am 27.1 32.5 23.8 82 2.3 SW 2 4 1 2 1009.2 1009.1 0.0
23/02:30am 27.4 32.5 24.1 82 2.3 WSW 4 7 2 4 1009.2 1009.1 0.0
23/02:00am 26.9 32.0 24.0 84 2.0 SW 4 4 2 2 1009.5 1009.4 0.0
23/01:30am 27.1 32.5 23.8 82 2.3 SW 2 2 1 1 1009.9 1009.8 0.0
23/01:00am 27.5 33.3 23.9 81 2.5 CALM 0 2 0 1 1010.3 1010.2 0.0
23/12:30am 27.3 32.5 23.5 80 2.6 SW 2 4 1 2 1010.8 1010.7 0.0
23/12:00am 27.9 33.3 23.9 79 2.8 WNW 2 4 1 2 1010.9 1010.8 0.0
 
Date/Time
CST
Temp
°C
App
Temp
°C
Dew
Point
°C
Rel
Hum
%
Delta-T
°C
Wind Press
QNH
hPa
Press
MSL
hPa
Rain since
9am
mm
Dir  Spd
km/h
Gust
km/h
Spd
kts
Gust
kts
22/11:30pm 27.5 32.9 23.3 78 2.9 CALM 0 0 0 0 1011.0 1010.9 0.0
22/11:00pm 27.7 33.1 23.3 77 3.0 CALM 0 0 0 0 1011.1 1011.0 0.0
22/10:30pm 28.1 33.5 23.2 74 3.4 CALM 0 0 0 0 1010.8 1010.7 0.0
22/10:00pm 28.7 33.8 23.4 73 3.6 NNW 2 4 1 2 1010.8 1010.7 0.0
22/09:30pm 29.0 33.7 23.4 72 3.8 N 4 6 2 3 1010.5 1010.4 0.0
22/09:00pm 29.2 33.9 23.4 71 4.0 NNW 4 7 2 4 1010.3 1010.2 0.0
22/08:30pm 29.2 34.0 22.9 69 4.3 NNW 2 6 1 3 1010.0 1009.9 0.0
22/08:00pm 29.7 33.7 22.7 66 4.8 NNW 6 9 3 5 1009.6 1009.5 0.0
22/07:30pm 30.3 33.8 21.9 60 5.7 NNW 6 9 3 5 1009.1 1009.0 0.0
22/07:00pm 31.3 33.8 21.8 57 6.4 N 11 15 6 8 1008.6 1008.5 0.0
22/06:30pm 32.3 35.2 22.4 56 6.8 NNW 11 19 6 10 1008.5 1008.4 0.0
22/06:00pm 32.9 33.7 21.7 51 7.6 NNW 20 26 11 14 1008.0 1007.9 0.0
22/05:30pm 33.8 34.0 20.6 46 8.9 NNW 20 33 11 18 1007.5 1007.4 0.0
22/05:00pm 35.4 34.4 20.5 41 10.0 NNW 26 37 14 20 1006.8 1006.7 0.0
22/04:49pm 36.3 35.9 19.3 37 11.3 N 20 41 11 22 1006.4 1006.3 0.0
22/04:30pm 37.5 38.7 15.9 28 13.8 N 4 9 2 5 1006.4 1006.3 0.0
22/04:00pm 37.3 38.7 16.3 29 13.4 ESE 4 9 2 5 1006.5 1006.4 0.0
22/03:30pm 37.5 39.1 15.9 28 13.8 SSW 2 7 1 4 1006.7 1006.6 0.0
22/03:00pm 37.5 38.3 16.4 28 13.5 SE 7 11 4 6 1006.9 1006.8 0.0
22/02:30pm 36.8 37.6 16.4 30 13.1 NE 7 15 4 8 1007.5 1007.4 0.0
22/02:00pm 36.9 38.0 17.0 31 12.8 ENE 7 20 4 11 1007.9 1007.8 0.0
22/01:30pm 36.9 38.7 17.5 32 12.6 E 4 11 2 6 1008.5 1008.4 0.0
22/01:00pm 36.4 37.7 18.5 35 11.7 NNW 9 17 5 9 1009.3 1009.2 0.0
22/12:30pm 36.2 37.8 19.2 37 11.3 N 9 15 5 8 1009.9 1009.8 0.0
22/12:00pm 35.5 37.0 19.0 37 10.9 SSW 9 17 5 9 1010.5 1010.4 0.0
22/11:30am 35.0 37.7 20.2 42 9.9 SE 6 11 3 6 1011.1 1011.0 0.0
22/11:00am 33.5 35.5 19.9 44 9.0 W 9 17 5 9 1011.8 1011.7 0.0
22/10:30am 33.6 35.8 19.7 44 9.2 SSW 7 15 4 8 1012.3 1012.2 0.0
22/10:00am 32.8 35.9 21.0 50 7.9 WNW 6 13 3 7 1012.6 1012.5 0.0
22/09:30am 31.6 35.0 21.7 55 6.7 W 6 9 3 5 1012.9 1012.8 0.0
22/09:00am 31.1 36.1 23.2 63 5.4 WSW 2 6 1 3 1012.9 1012.8 0.0
22/08:30am 29.9 34.8 23.6 69 4.3 WNW 4 7 2 4 1013.1 1013.0 0.0
22/08:00am 28.6 32.7 22.3 68 4.3 NNE 4 7 2 4 1013.0 1012.9 0.0
22/07:30am 27.8 32.5 22.7 74 3.5 W 2 4 1 2 1012.8 1012.7 0.0
22/07:00am 25.2 30.0 22.1 83 2.1 CALM 0 0 0 0 1012.3 1012.2 0.0
22/06:30am 24.4 29.1 21.9 86 1.7 CALM 0 0 0 0 1011.8 1011.7 0.0
22/06:00am 24.4 28.8 21.3 83 2.0 CALM 0 0 0 0 1011.5 1011.4 0.0
22/05:30am 24.6 29.1 21.5 83 2.1 CALM 0 0 0 0 1011.2 1011.1 0.0
22/05:00am 24.5 29.0 21.6 84 1.9 CALM 0 0 0 0 1010.9 1010.8 0.0
22/04:30am 24.6 29.2 21.7 84 1.9 CALM 0 0 0 0 1010.7 1010.6 0.0
22/04:00am 24.6 29.0 21.3 82 2.2 CALM 0 0 0 0 1010.5 1010.4 0.0
22/03:30am 24.4 28.6 20.9 81 2.3 CALM 0 0 0 0 1010.3 1010.2 0.0
22/03:00am 25.1 29.5 21.4 80 2.5 CALM 0 0 0 0 1010.3 1010.2 0.0
22/02:30am 25.2 29.6 21.3 79 2.6 CALM 0 0 0 0 1010.4 1010.3 0.0
22/02:00am 24.9 29.0 20.8 78 2.7 CALM 0 0 0 0 1010.7 1010.6 0.0
22/01:30am 26.0 30.2 21.7 77 2.9 W 2 4 1 2 1011.0 1010.9 0.0
22/01:00am 25.1 29.4 21.2 79 2.6 CALM 0 0 0 0 1011.1 1011.0 0.0
22/12:30am 24.6 28.5 20.3 77 2.8 CALM 0 0 0 0 1011.2 1011.1 0.0
22/12:00am 26.3 30.7 21.3 74 3.3 CALM 0 4 0 2 1011.4 1011.3 0.0
 
Date/Time
CST
Temp
°C
App
Temp
°C
Dew
Point
°C
Rel
Hum
%
Delta-T
°C
Wind Press
QNH
hPa
Press
MSL
hPa
Rain since
9am
mm
Dir  Spd
km/h
Gust
km/h
Spd
kts
Gust
kts
21/11:30pm 27.1 30.8 21.4 71 3.8 ENE 4 6 2 3 1011.6 1011.5 0.0
21/11:00pm 27.7 30.8 21.5 69 4.1 ENE 7 11 4 6 1011.5 1011.4 0.0
21/10:30pm 28.0 30.2 21.1 66 4.6 ENE 11 13 6 7 1011.5 1011.4 0.0
21/10:00pm 28.2 30.4 20.5 63 5.1 NE 9 15 5 8 1011.3 1011.2 0.0
21/09:30pm 28.3 31.2 19.8 60 5.6 NNE 4 9 2 5 1010.9 1010.8 0.0
21/09:00pm 28.6 31.2 19.2 56 6.1 NNE 4 6 2 3 1010.6 1010.5 0.0
21/08:30pm 30.0 32.1 19.4 53 6.9 NNE 7 11 4 6 1010.3 1010.2 0.0
21/08:00pm 30.1 31.9 19.5 53 6.9 N 9 13 5 7 1010.1 1010.0 0.0
21/07:30pm 30.0 31.7 19.4 53 6.9 NNW 9 17 5 9 1009.9 1009.8 0.0
21/07:00pm 31.0 32.9 19.7 51 7.4 NNW 9 17 5 9 1009.6 1009.5 0.0
21/06:30pm 32.1 33.2 20.4 50 7.8 NNW 15 22 8 12 1009.1 1009.0 0.0
21/06:00pm 33.1 33.2 19.9 45 8.8 NNW 19 28 10 15 1008.4 1008.3 0.0
21/05:30pm 35.1 35.4 16.9 34 11.7 NNW 11 19 6 10 1007.9 1007.8 0.0
21/05:00pm 36.0 35.0 15.7 30 12.8 N 15 24 8 13 1007.6 1007.5 0.0
21/04:30pm 37.1 35.7 16.6 29 13.2 N 19 30 10 16 1007.6 1007.5 0.0
21/04:00pm 37.6 37.8 12.9 23 15.1 ESE 4 11 2 6 1007.6 1007.5 0.0
21/03:30pm 37.9 36.3 13.8 23 14.9 NNE 15 22 8 12 1007.8 1007.7 0.0
21/03:00pm 38.0 37.0 13.3 23 15.2 NE 11 20 6 11 1008.2 1008.1 0.0
21/02:30pm 37.1 36.2 13.8 25 14.4 NNE 11 19 6 10 1008.6 1008.5 0.0
21/02:00pm 37.4 36.4 14.7 26 14.2 NNE 13 22 7 12 1009.1 1009.0 0.0
21/01:30pm 37.3 36.4 12.7 23 15.0 ENE 9 20 5 11 1009.9 1009.8 0.0
21/01:00pm 37.5 35.3 12.2 22 15.3 NE 15 22 8 12 1010.5 1010.4 0.0
21/12:30pm 37.2 35.5 11.2 21 15.5 NE 11 26 6 14 1011.3 1011.2 0.0
21/12:00pm 36.0 36.2 15.7 30 12.8 E 9 17 5 9 1012.0 1011.9 0.0
21/11:30am 35.6 36.4 17.3 33 11.8 N 9 20 5 11 1012.7 1012.6 0.0
21/11:00am 34.8 36.3 17.5 35 11.1 N 6 9 3 5 1013.2 1013.1 0.0
21/10:30am 34.3 36.3 18.8 40 10.2 NW 6 11 3 6 1013.8 1013.7 0.0
21/10:00am 33.5 36.7 20.6 46 8.6 ENE 4 15 2 8 1014.0 1013.9 0.0
21/09:30am 31.7 35.6 21.8 55 6.7 SSW 4 9 2 5 1014.3 1014.2 0.0
21/09:00am 30.6 34.5 21.9 59 5.9 NW 4 11 2 6 1014.3 1014.2 0.0
21/08:30am 29.3 33.5 22.5 67 4.6 N 4 9 2 5 1014.3 1014.2 0.0
21/08:00am 28.6 32.9 22.6 70 4.1 NNE 4 7 2 4 1014.2 1014.1 0.0
21/07:30am 27.6 32.0 22.8 75 3.3 E 4 6 2 3 1013.8 1013.7 0.0
21/07:00am 26.6 31.5 23.1 81 2.4 E 2 4 1 2 1013.4 1013.3 0.0
21/06:30am 24.7 29.9 22.8 89 1.3 CALM 0 0 0 0 1013.1 1013.0 0.0

Other Formats:

Comma delimited format used in spreadsheet applications
http://www.bom.gov.au/fwo/IDD60801/IDD60801.94110.axf

JavaScript Object Notation format (JSON) in row-major order
http://www.bom.gov.au/fwo/IDD60801/IDD60801.94110.json